Time;durP1;ratioP1;P1;durP2;ratioP2;P2;SDS_P1;SDS_P2;PMS_P1;PMS_P2;Temp;Humidity;BMP_temperature;BMP_pressure;BME280_temperature;BME280_humidity;BME280_pressure;Samples;Min_cycle;Max_cycle;Signal;HPM_P1;HPM_P2
2021/05/13 00:00:20;;;;;;;6.92;4.42;;;;;;;12.66;58.41;98836.75;1781905;79;21024;-42
2021/05/13 00:02:46;;;;;;;7.25;4.78;;;;;;;12.70;58.28;98837.52;1770740;79;21058;-42
2021/05/13 00:05:15;;;;;;;12.37;5.45;;;;;;;12.73;57.81;98839.49;1783746;79;21079;-42
2021/05/13 00:07:42;;;;;;;9.48;5.72;;;;;;;12.75;57.55;98839.87;1764634;79;21065;-42
2021/05/13 00:10:13;;;;;;;11.45;6.25;;;;;;;12.74;57.21;98830.14;1764633;79;20948;-46
2021/05/13 00:12:48;;;;;;;8.90;5.87;;;;;;;12.66;57.20;98836.75;1772215;79;20956;-42
2021/05/13 00:15:17;;;;;;;9.18;5.45;;;;;;;12.55;57.50;98836.14;1790531;79;21565;-42
2021/05/13 00:17:44;;;;;;;9.30;5.75;;;;;;;12.47;58.04;98831.85;1765085;79;20992;-42
2021/05/13 00:20:14;;;;;;;10.13;6.12;;;;;;;12.43;58.09;98825.63;1776485;79;21045;-42
2021/05/13 00:22:40;;;;;;;6.62;5.58;;;;;;;12.41;58.04;98826.59;1765540;79;21604;-42
2021/05/13 00:25:09;;;;;;;10.63;6.17;;;;;;;12.36;58.15;98825.59;1773319;79;20951;-42
2021/05/13 00:27:35;;;;;;;12.18;6.37;;;;;;;12.30;58.54;98823.62;1783235;79;21038;-42
2021/05/13 00:30:06;;;;;;;11.50;5.87;;;;;;;12.22;59.05;98821.48;1789622;78;21030;-43
2021/05/13 00:32:40;;;;;;;9.73;5.55;;;;;;;12.16;59.35;98816.98;1787465;79;21112;-42
2021/05/13 00:35:06;;;;;;;9.68;5.30;;;;;;;12.16;59.64;98822.42;1781692;79;21563;-42
2021/05/13 00:37:33;;;;;;;12.63;6.30;;;;;;;12.20;59.84;98814.27;1794136;79;21544;-42
2021/05/13 00:40:00;;;;;;;7.20;5.58;;;;;;;12.23;60.00;98806.73;1785077;79;21705;-42
2021/05/13 00:42:28;;;;;;;8.23;6.15;;;;;;;12.23;60.20;98805.37;1782045;79;21055;-42
2021/05/13 00:44:55;;;;;;;10.23;6.50;;;;;;;12.25;60.11;98802.28;1782197;79;21730;-42
2021/05/13 00:47:23;;;;;;;10.55;5.58;;;;;;;12.24;59.95;98805.58;1794664;79;20952;-42
2021/05/13 00:49:50;;;;;;;7.78;5.90;;;;;;;12.25;59.84;98803.03;1783447;79;20998;-42
2021/05/13 00:52:20;;;;;;;11.55;5.62;;;;;;;12.23;59.48;98801.30;1781886;79;21059;-42
2021/05/13 00:54:46;;;;;;;12.37;5.70;;;;;;;12.19;59.40;98796.44;1789731;79;21022;-42
2021/05/13 00:57:13;;;;;;;11.03;6.35;;;;;;;12.13;59.49;98795.25;1788386;79;21003;-42
2021/05/13 00:59:43;;;;;;;10.60;5.90;;;;;;;12.12;59.65;98792.33;1784658;79;21568;-42
2021/05/13 01:02:10;;;;;;;10.13;6.15;;;;;;;11.79;59.86;98740.98;1787153;79;21497;-42
2021/05/13 01:04:37;;;;;;;10.45;6.60;;;;;;;12.04;60.00;98792.11;1781569;80;21415;-42
2021/05/13 01:07:04;;;;;;;12.15;6.72;;;;;;;11.99;60.16;98788.41;1782790;79;21158;-42
2021/05/13 01:09:32;;;;;;;11.60;5.85;;;;;;;11.95;60.36;98788.39;1793159;79;21494;-42
2021/05/13 01:12:06;;;;;;;8.75;6.03;;;;;;;11.91;60.48;98788.19;1805911;79;21014;-42
2021/05/13 01:14:43;;;;;;;9.25;5.80;;;;;;;11.91;60.46;98786.83;1792286;78;21020;-42
2021/05/13 01:19:34;;;;;;;11.38;5.67;;;;;;;11.92;60.81;98784.28;1786234;79;21066;-42
2021/05/13 01:22:01;;;;;;;9.78;6.50;;;;;;;11.99;60.89;98788.41;1783232;78;21822;-42
2021/05/13 01:24:27;;;;;;;9.28;6.10;;;;;;;12.05;60.92;98788.23;1797762;79;21576;-42
2021/05/13 01:26:55;;;;;;;10.85;6.00;;;;;;;12.08;60.95;98780.67;1793524;79;21310;-42
2021/05/13 01:29:25;;;;;;;8.85;6.20;;;;;;;12.12;60.89;98780.09;1765709;79;21011;-42
2021/05/13 01:31:52;;;;;;;9.50;5.80;;;;;;;12.13;60.90;98776.22;1765185;79;21015;-42
2021/05/13 01:34:19;;;;;;;10.18;6.03;;;;;;;12.11;61.12;98782.61;1766774;79;21565;-42
2021/05/13 01:36:46;;;;;;;15.58;6.95;;;;;;;12.08;61.36;98784.17;1775713;79;20988;-42
2021/05/13 01:39:13;;;;;;;9.75;5.37;;;;;;;12.04;61.52;98779.31;1775097;79;20936;-42
2021/05/13 01:41:42;;;;;;;11.20;5.87;;;;;;;11.97;61.84;98777.91;1767562;79;21751;-42
2021/05/13 01:44:09;;;;;;;12.33;6.12;;;;;;;11.95;61.99;98778.11;1793099;79;21075;-42
2021/05/13 01:46:37;;;;;;;11.70;6.75;;;;;;;11.92;62.09;98773.42;1765699;79;21075;-42
2021/05/13 01:49:05;;;;;;;11.55;6.15;;;;;;;11.91;62.27;98771.89;1766561;79;21615;-42
2021/05/13 01:51:32;;;;;;;7.90;5.60;;;;;;;11.90;62.39;98771.11;1767427;79;21126;-42
2021/05/13 01:54:00;;;;;;;11.63;5.70;;;;;;;11.90;62.47;98767.61;1764859;79;20943;-42
2021/05/13 01:56:27;;;;;;;8.15;5.08;;;;;;;11.87;62.53;98771.85;1780852;78;21505;-42
2021/05/13 01:58:54;;;;;;;10.50;5.70;;;;;;;11.87;62.67;98769.14;1784801;79;21147;-42
2021/05/13 02:01:21;;;;;;;8.15;5.50;;;;;;;11.92;62.52;98760.63;1776494;79;21083;-42
2021/05/13 02:03:49;;;;;;;8.55;5.47;;;;;;;11.93;62.60;98760.83;1764659;79;20987;-42
2021/05/13 02:06:16;;;;;;;8.85;5.55;;;;;;;11.92;62.78;98762.55;1764382;79;21612;-42
2021/05/13 02:08:44;;;;;;;12.23;5.85;;;;;;;11.91;62.92;98771.89;1765168;79;20947;-42
2021/05/13 02:11:10;;;;;;;8.45;5.47;;;;;;;11.89;63.10;98773.62;1764785;79;21068;-42
2021/05/13 02:13:37;;;;;;;11.30;5.83;;;;;;;11.88;63.20;98772.63;1780523;79;20951;-42
2021/05/13 02:16:06;;;;;;;10.03;5.40;;;;;;;11.88;63.21;98769.92;1783109;79;20948;-42
2021/05/13 02:18:33;;;;;;;10.28;5.28;;;;;;;11.92;63.41;98770.70;1793279;79;20964;-42
2021/05/13 02:21:00;;;;;;;12.60;5.12;;;;;;;11.92;63.50;98771.48;1777083;79;20976;-42
2021/05/13 02:23:26;;;;;;;8.33;5.42;;;;;;;11.88;63.70;98772.05;1764395;80;21058;-42
2021/05/13 02:25:53;;;;;;;11.45;6.15;;;;;;;11.85;63.75;98777.48;1726550;82;21011;-42
2021/05/13 02:28:20;;;;;;;9.20;5.50;;;;;;;11.80;63.85;98781.34;1722951;83;21110;-42
2021/05/13 02:30:47;;;;;;;9.73;5.37;;;;;;;11.75;64.04;98775.70;1722733;82;21561;-42
2021/05/13 02:33:14;;;;;;;10.58;5.53;;;;;;;11.71;64.19;98775.45;1731885;81;21061;-42
2021/05/13 02:35:40;;;;;;;9.35;6.05;;;;;;;11.68;64.34;98772.13;1750560;81;21732;-42
2021/05/13 02:38:07;;;;;;;10.98;5.37;;;;;;;11.31;64.42;98724.83;1723278;81;21027;-42
2021/05/13 02:40:33;;;;;;;11.35;4.97;;;;;;;11.62;64.53;98776.35;1751043;81;20964;-42
2021/05/13 02:43:03;;;;;;;11.03;5.53;;;;;;;11.63;64.59;98771.12;1750298;81;21091;-42
2021/05/13 02:45:29;;;;;;;9.33;5.55;;;;;;;11.60;64.75;98772.68;1735578;81;21047;-42
2021/05/13 02:47:58;;;;;;;11.35;5.67;;;;;;;11.57;65.03;98774.78;1724391;81;21642;-41
2021/05/13 02:50:25;;;;;;;11.50;6.28;;;;;;;11.60;65.09;98778.69;1728050;81;21051;-42
2021/05/13 02:52:52;;;;;;;9.23;5.83;;;;;;;11.56;65.23;98785.46;1725240;81;21041;-42
2021/05/13 02:55:18;;;;;;;11.45;5.83;;;;;;;11.53;65.41;98782.70;1723151;81;21129;-41
2021/05/13 02:57:46;;;;;;;16.25;6.30;;;;;;;11.50;65.59;98778.05;1731375;81;21540;-42
2021/05/13 03:00:19;;;;;;;10.20;5.85;;;;;;;11.53;65.73;98782.70;1747446;81;21067;-42
2021/05/13 03:02:44;;;;;;;11.65;6.30;;;;;;;11.56;65.79;98781.39;1744358;81;21107;-42
2021/05/13 03:05:12;;;;;;;10.98;6.05;;;;;;;11.54;65.94;98785.05;1726773;81;20983;-42
2021/05/13 03:07:48;;;;;;;10.35;6.20;;;;;;;11.51;66.00;98783.11;1722948;83;21134;-42
2021/05/13 03:10:54;;;;;;;9.40;5.65;;;;;;;11.51;66.08;98788.53;1722437;83;21062;-42
2021/05/13 03:12:43;;;;;;;11.00;5.40;;;;;;;11.53;66.21;98781.34;1707044;81;21742;-42
2021/05/13 03:15:11;;;;;;;13.53;6.15;;;;;;;11.63;66.04;98777.34;1745238;81;21034;-42
2021/05/13 03:17:38;;;;;;;9.25;5.60;;;;;;;11.73;65.85;98776.64;1742466;81;20982;-42
2021/05/13 03:20:07;;;;;;;8.50;5.60;;;;;;;11.78;65.71;98778.80;1730943;81;21055;-42
2021/05/13 03:22:34;;;;;;;10.18;5.67;;;;;;;11.82;65.57;98779.58;1749626;81;20975;-42
2021/05/13 03:25:04;;;;;;;7.33;5.65;;;;;;;11.87;65.31;98781.36;1728573;81;21084;-42
2021/05/13 03:30:08;;;;;;;9.83;5.30;;;;;;;11.92;64.91;98780.21;1732213;81;20977;-42
2021/05/13 03:32:35;;;;;;;11.03;5.37;;;;;;;11.96;64.79;98782.36;1775251;80;21573;-42
2021/05/13 03:35:03;;;;;;;8.65;5.30;;;;;;;12.04;64.63;98785.32;1763063;80;21078;-42
2021/05/13 03:37:30;;;;;;;9.88;5.65;;;;;;;11.80;64.31;98735.75;1769338;80;21671;-42
2021/05/13 03:39:57;;;;;;;9.80;5.75;;;;;;;12.12;64.11;98786.89;1776146;80;21105;-42
2021/05/13 03:42:24;;;;;;;11.00;6.45;;;;;;;12.10;63.95;98785.91;1772960;80;21007;-42
2021/05/13 03:44:51;;;;;;;8.90;6.08;;;;;;;12.12;63.81;98789.61;1773530;80;21058;-42
2021/05/13 03:47:19;;;;;;;11.83;5.78;;;;;;;12.08;63.48;98786.11;1782953;80;21062;-42
2021/05/13 03:49:46;;;;;;;10.70;5.78;;;;;;;12.03;63.56;98787.25;1782787;80;22207;-42
2021/05/13 03:52:13;;;;;;;8.30;5.70;;;;;;;12.04;63.53;98786.67;1783861;79;20999;-42
2021/05/13 03:54:40;;;;;;;8.70;6.15;;;;;;;12.07;63.42;98781.83;1782940;80;21006;-42
2021/05/13 03:57:07;;;;;;;10.38;6.45;;;;;;;12.11;63.57;98786.69;1783981;80;21015;-42
2021/05/13 03:59:38;;;;;;;12.33;6.30;;;;;;;12.10;63.46;98783.80;1782221;80;21083;-42
2021/05/13 04:04:48;;;;;;;10.93;6.33;;;;;;;12.12;63.13;98780.87;1775264;80;21007;-42
2021/05/13 04:07:15;;;;;;;10.78;6.30;;;;;;;12.11;63.11;98786.11;1783934;80;21011;-42
2021/05/13 04:09:43;;;;;;;10.38;5.70;;;;;;;12.17;62.88;98789.23;1782453;80;21638;-42
2021/05/13 04:12:10;;;;;;;9.30;5.55;;;;;;;12.28;62.84;98780.55;1783065;80;21027;-42
2021/05/13 04:14:37;;;;;;;8.80;6.22;;;;;;;12.33;62.90;98780.17;1779204;80;21059;-42
2021/05/13 04:17:07;;;;;;;10.28;5.85;;;;;;;12.35;62.90;98781.91;1770743;79;20932;-42
2021/05/13 04:19:34;;;;;;;11.03;6.22;;;;;;;12.41;62.54;98783.09;1781877;80;21636;-42
2021/05/13 04:22:02;;;;;;;14.98;6.28;;;;;;;12.42;62.20;98780.58;1770285;80;21047;-42
2021/05/13 04:24:30;;;;;;;9.88;5.58;;;;;;;12.40;61.83;98782.89;1783751;79;21007;-42
2021/05/13 04:26:57;;;;;;;8.90;5.80;;;;;;;12.40;61.99;98792.41;1780824;79;21700;-42
2021/05/13 04:29:23;;;;;;;10.38;6.45;;;;;;;12.46;61.91;98791.45;1777256;79;21017;-42
2021/05/13 04:31:50;;;;;;;7.97;6.08;;;;;;;12.50;61.65;98796.30;1783597;79;21035;-42
2021/05/13 04:34:17;;;;;;;9.10;5.97;;;;;;;12.56;61.10;98793.41;1778184;79;20972;-42
2021/05/13 04:36:43;;;;;;;9.35;5.67;;;;;;;12.62;60.54;98791.30;1764558;79;21055;-42
2021/05/13 04:39:53;;;;;;;8.78;5.70;;;;;;;12.74;59.55;98779.83;1823172;78;22159;-41
2021/05/13 04:42:19;;;;;;;11.53;6.40;;;;;;;12.73;58.97;98785.09;1788254;79;21003;-41
2021/05/13 04:44:47;;;;;;;7.62;5.95;;;;;;;12.75;58.82;98786.25;1791716;79;21995;-41
2021/05/13 04:47:30;;;;;;;7.83;5.92;;;;;;;12.78;58.77;98783.35;1796169;79;21011;-41
2021/05/13 04:49:55;;;;;;;8.18;5.50;;;;;;;12.84;58.22;98781.78;1790564;79;21122;-41
2021/05/13 04:52:24;;;;;;;6.33;5.55;;;;;;;12.83;57.73;98778.89;1791366;79;21002;-41
2021/05/13 04:54:53;;;;;;;6.85;5.15;;;;;;;12.82;57.65;98778.69;1736037;82;20955;-41
2021/05/13 04:57:20;;;;;;;7.30;5.10;;;;;;;12.84;57.11;98775.76;1726509;82;21685;-41
2021/05/13 04:59:47;;;;;;;8.50;5.03;;;;;;;12.84;57.18;98775.76;1733035;82;21073;-41
2021/05/13 05:02:14;;;;;;;6.62;5.08;;;;;;;12.83;57.37;98770.73;1714294;82;21022;-41
2021/05/13 05:04:41;;;;;;;7.80;5.03;;;;;;;12.84;57.35;98773.62;1738408;82;21631;-41
2021/05/13 05:07:08;;;;;;;7.92;5.35;;;;;;;12.88;56.99;98777.11;1723586;82;20967;-41
2021/05/13 05:09:34;;;;;;;10.18;5.40;;;;;;;12.93;57.04;98773.42;1746028;81;21115;-41
2021/05/13 05:12:02;;;;;;;6.30;4.83;;;;;;;12.99;56.91;98770.52;1719963;82;21007;-41
2021/05/13 05:14:28;;;;;;;6.55;5.20;;;;;;;13.03;56.63;98769.15;1713226;83;20976;-41
2021/05/13 05:16:55;;;;;;;7.60;4.90;;;;;;;13.09;56.34;98768.95;1709135;83;21955;-41
2021/05/13 05:19:22;;;;;;;7.20;4.42;;;;;;;13.13;56.22;98767.03;1713202;83;21110;-41
2021/05/13 05:21:50;;;;;;;6.78;4.83;;;;;;;13.19;55.73;98766.06;1753064;81;21039;-42
2021/05/13 05:24:17;;;;;;;5.50;4.42;;;;;;;13.25;56.00;98768.01;1719563;82;21012;-42
2021/05/13 05:26:44;;;;;;;5.47;4.20;;;;;;;13.34;55.56;98767.02;1731145;82;21079;-41
2021/05/13 05:29:11;;;;;;;6.33;4.17;;;;;;;13.41;55.56;98761.54;1752325;81;20942;-41
2021/05/13 05:31:37;;;;;;;6.60;4.50;;;;;;;13.51;53.86;98761.94;1744316;81;20994;-41
2021/05/13 05:34:04;;;;;;;5.08;4.05;;;;;;;13.56;53.91;98761.50;1713139;82;21087;-41
2021/05/13 05:36:31;;;;;;;5.72;4.30;;;;;;;13.58;54.16;98765.41;1713183;83;21573;-41
2021/05/13 05:38:59;;;;;;;4.47;3.70;;;;;;;13.64;53.77;98768.50;1744301;81;21073;-41
2021/05/13 05:41:26;;;;;;;4.78;3.92;;;;;;;13.69;53.01;98768.10;1741817;81;21029;-41
2021/05/13 05:43:52;;;;;;;5.62;3.83;;;;;;;13.72;53.53;98761.85;1764363;81;20995;-41
2021/05/13 05:46:19;;;;;;;6.65;4.03;;;;;;;13.82;53.46;98770.58;1764208;81;21126;-41
2021/05/13 05:48:46;;;;;;;6.40;4.03;;;;;;;13.90;52.79;98774.81;1745021;81;21596;-41
2021/05/13 05:51:13;;;;;;;5.05;4.00;;;;;;;13.94;52.42;98777.72;1772785;79;20983;-41
2021/05/13 05:53:39;;;;;;;5.90;3.85;;;;;;;13.98;52.12;98776.36;1776340;79;20979;-41
2021/05/13 05:56:06;;;;;;;5.87;4.05;;;;;;;13.96;51.70;98778.70;1802036;79;21083;-41
2021/05/13 05:58:33;;;;;;;6.67;4.28;;;;;;;13.96;52.25;98777.33;1790561;79;21672;-41
2021/05/13 06:01:00;;;;;;;7.45;3.80;;;;;;;14.07;52.62;98772.62;1782061;79;21018;-41
2021/05/13 06:03:26;;;;;;;6.90;3.58;;;;;;;14.21;51.83;98768.45;1771707;79;20999;-41
2021/05/13 06:05:53;;;;;;;4.65;3.75;;;;;;;14.38;51.95;98771.52;1760234;79;21057;-41
2021/05/13 06:08:20;;;;;;;3.80;3.33;;;;;;;14.54;51.23;98780.75;1754347;81;21040;-41
2021/05/13 06:10:47;;;;;;;4.92;3.67;;;;;;;14.69;50.85;98775.40;1754152;81;21081;-41
2021/05/13 06:13:14;;;;;;;4.78;3.40;;;;;;;14.86;50.39;98773.73;1781227;79;20984;-41
2021/05/13 06:15:41;;;;;;;4.25;3.00;;;;;;;15.01;50.04;98779.81;1772136;79;20970;-41
2021/05/13 06:18:08;;;;;;;4.67;2.92;;;;;;;15.12;48.64;98774.47;1783365;79;21075;-41
2021/05/13 06:20:35;;;;;;;5.55;3.22;;;;;;;15.22;48.82;98771.45;1784231;79;20944;-41
2021/05/13 06:23:04;;;;;;;5.35;3.00;;;;;;;15.35;48.59;98756.69;1795878;79;21685;-41
2021/05/13 06:25:31;;;;;;;4.55;2.45;;;;;;;15.50;48.53;98754.00;1774738;79;21707;-41
2021/05/13 06:27:59;;;;;;;4.92;2.50;;;;;;;15.62;47.61;98754.89;1772255;79;21536;-41
2021/05/13 06:30:25;;;;;;;3.10;2.65;;;;;;;15.72;46.60;98777.22;1801804;79;21330;-41
2021/05/13 06:32:52;;;;;;;3.55;2.42;;;;;;;15.76;46.18;98772.48;1773290;79;21587;-41
2021/05/13 06:35:21;;;;;;;3.30;2.40;;;;;;;15.78;47.11;98775.57;1797053;79;21043;-41
2021/05/13 06:37:48;;;;;;;3.83;2.65;;;;;;;15.84;46.64;98778.05;1801807;79;21539;-42
2021/05/13 06:40:16;;;;;;;6.10;3.15;;;;;;;15.86;46.16;98772.95;1797610;78;21010;-41
2021/05/13 06:42:42;;;;;;;5.37;2.67;;;;;;;15.88;46.96;98773.31;1780435;79;20988;-41
2021/05/13 06:45:10;;;;;;;6.17;2.77;;;;;;;15.89;46.30;98771.35;1777365;79;20912;-41
2021/05/13 06:47:39;;;;;;;2.67;1.77;;;;;;;15.87;47.13;98765.53;1771381;79;21046;-42
2021/05/13 06:50:08;;;;;;;2.80;1.82;;;;;;;15.84;46.14;98761.64;1777400;79;20967;-41
2021/05/13 06:52:36;;;;;;;3.30;1.90;;;;;;;15.83;45.86;98764.81;1771210;79;21079;-41
2021/05/13 06:55:05;;;;;;;3.52;1.77;;;;;;;15.85;46.55;98765.94;1776929;79;20956;-42
2021/05/13 06:57:32;;;;;;;3.80;1.60;;;;;;;15.88;45.94;98761.01;1776779;79;20983;-41
2021/05/13 06:59:59;;;;;;;4.67;1.72;;;;;;;15.89;45.08;98770.77;1780694;79;21796;-41
2021/05/13 07:02:26;;;;;;;2.75;1.32;;;;;;;15.88;45.33;98763.74;1775559;79;20952;-41
2021/05/13 07:04:53;;;;;;;1.72;1.20;;;;;;;15.87;44.65;98766.91;1779901;79;21014;-41
2021/05/13 07:07:20;;;;;;;1.70;1.20;;;;;;;15.79;44.56;98764.83;1785643;79;21079;-41
2021/05/13 07:09:48;;;;;;;4.40;1.30;;;;;;;15.73;44.69;98765.70;1795200;79;21632;-41
2021/05/13 07:12:14;;;;;;;2.00;1.20;;;;;;;15.60;44.60;98762.12;1779396;79;21014;-42
2021/05/13 07:14:41;;;;;;;4.80;1.35;;;;;;;15.54;45.02;98765.72;1772604;79;21022;-41
2021/05/13 07:17:08;;;;;;;3.27;1.12;;;;;;;15.50;44.86;98767.66;1791927;79;21003;-41
2021/05/13 07:19:34;;;;;;;1.75;1.17;;;;;;;15.49;45.15;98771.59;1779825;79;21027;-41
2021/05/13 07:22:01;;;;;;;1.98;1.35;;;;;;;15.22;44.80;98727.77;1766786;80;21047;-41
2021/05/13 07:24:28;;;;;;;4.03;1.30;;;;;;;15.50;44.76;98760.83;1769327;81;21639;-41
2021/05/13 07:26:55;;;;;;;2.05;1.30;;;;;;;15.55;45.42;98754.95;1769215;81;21023;-41
2021/05/13 07:29:22;;;;;;;2.45;1.40;;;;;;;15.67;44.94;98755.81;1751141;80;21095;-41
2021/05/13 07:31:48;;;;;;;2.55;1.40;;;;;;;15.79;44.54;98764.83;1769708;81;20968;-41
2021/05/13 07:34:15;;;;;;;3.98;1.50;;;;;;;15.85;44.04;98767.89;1754478;81;20908;-41
2021/05/13 07:36:41;;;;;;;1.95;1.52;;;;;;;15.90;43.62;98770.17;1749896;81;21020;-41
2021/05/13 07:39:09;;;;;;;1.52;1.20;;;;;;;15.95;43.54;98769.14;1750481;80;21024;-41
2021/05/13 07:41:35;;;;;;;2.87;1.42;;;;;;;16.03;43.63;98771.17;1772355;80;21524;-41
2021/05/13 07:44:03;;;;;;;2.27;1.47;;;;;;;16.07;43.38;98761.74;1770887;80;21096;-41
2021/05/13 07:46:36;;;;;;;1.80;1.40;;;;;;;16.06;43.36;98760.22;1773909;80;20999;-41
2021/05/13 07:49:00;;;;;;;2.17;1.50;;;;;;;16.01;44.00;98762.62;1768477;80;21032;-42
2021/05/13 07:51:27;;;;;;;2.17;1.70;;;;;;;15.96;44.22;98767.18;1752771;80;21036;-41
2021/05/13 07:53:53;;;;;;;4.55;1.50;;;;;;;15.95;44.90;98767.77;1771410;80;21554;-41
2021/05/13 07:56:20;;;;;;;2.35;1.77;;;;;;;16.00;44.78;98761.07;1763980;80;21104;-41
2021/05/13 07:58:48;;;;;;;4.45;1.80;;;;;;;16.02;45.19;98766.91;1769081;80;21698;-41
2021/05/13 08:01:14;;;;;;;2.72;1.67;;;;;;;16.00;44.49;98742.70;1770160;80;22569;-41
2021/05/13 08:03:41;;;;;;;2.37;1.62;;;;;;;16.14;44.77;98745.84;1771558;80;21039;-41
2021/05/13 08:06:08;;;;;;;2.58;1.60;;;;;;;16.27;44.68;98739.99;1772270;80;20997;-41
2021/05/13 08:08:35;;;;;;;2.22;1.80;;;;;;;16.45;44.32;98745.23;1772166;80;21005;-41
2021/05/13 08:11:02;;;;;;;4.00;2.05;;;;;;;16.66;44.54;98740.81;1770311;80;21021;-41
2021/05/13 08:13:30;;;;;;;4.65;2.20;;;;;;;16.94;44.03;98743.71;1773168;80;21639;-41
2021/05/13 08:15:58;;;;;;;2.80;1.70;;;;;;;17.21;44.22;98742.26;1772240;80;21018;-41
2021/05/13 08:18:24;;;;;;;3.15;1.62;;;;;;;17.50;43.27;98741.91;1772974;80;21575;-42
2021/05/13 08:20:52;;;;;;;3.10;2.25;;;;;;;17.63;42.02;98732.48;1772544;80;21034;-41
2021/05/13 08:23:19;;;;;;;3.72;2.27;;;;;;;17.63;41.87;98730.52;1772612;80;21057;-41
2021/05/13 08:25:46;;;;;;;2.33;2.00;;;;;;;17.60;41.71;98742.94;1773067;80;21036;-42
2021/05/13 08:28:13;;;;;;;3.05;1.92;;;;;;;17.53;41.52;98729.33;1772912;80;20961;-41
2021/05/13 08:30:39;;;;;;;4.08;1.75;;;;;;;17.55;42.40;98729.09;1772794;80;20925;-41
2021/05/13 08:33:06;;;;;;;2.30;1.67;;;;;;;17.65;42.26;98733.63;1772873;80;21005;-42
2021/05/13 08:35:33;;;;;;;1.92;1.25;;;;;;;17.80;41.01;98735.49;1770679;80;21597;-41
2021/05/13 08:37:59;;;;;;;3.10;1.65;;;;;;;17.96;39.40;98736.91;1771915;80;21090;-42
2021/05/13 08:40:26;;;;;;;2.72;1.40;;;;;;;18.04;37.61;98739.69;1754747;80;21070;-41
2021/05/13 08:42:53;;;;;;;2.02;1.60;;;;;;;18.00;38.34;98749.19;1712000;82;21591;-42
2021/05/13 08:45:20;;;;;;;3.12;1.60;;;;;;;17.93;39.09;98741.09;1750743;81;20990;-41
2021/05/13 08:47:47;;;;;;;2.35;1.55;;;;;;;17.97;38.37;98747.28;1698134;84;21050;-42
2021/05/13 08:50:15;;;;;;;2.10;1.30;;;;;;;18.05;38.40;98742.61;1744082;79;21064;-42
2021/05/13 08:52:45;;;;;;;2.90;1.37;;;;;;;18.12;38.12;98749.30;1753588;81;20989;-41
2021/05/13 08:55:13;;;;;;;;;;;;;;;18.17;37.70;98739.20;1703187;84;21149;-42
2021/05/13 08:57:40;;;;;;;1.75;1.50;;;;;;;18.17;38.23;98739.80;1707015;82;20268;-41
2021/05/13 09:00:08;;;;;;;3.27;1.60;;;;;;;18.06;39.15;98735.13;1757202;81;21062;-42
2021/05/13 09:02:34;;;;;;;1.77;1.57;;;;;;;18.07;38.46;98734.72;1767081;81;21058;-42
2021/05/13 09:05:02;;;;;;;2.00;1.57;;;;;;;18.04;38.27;98729.31;1749674;80;21852;-42
2021/05/13 09:07:31;;;;;;;2.27;1.77;;;;;;;18.01;38.62;98735.03;1740939;81;21560;-41
2021/05/13 09:10:08;;;;;;;2.67;1.60;;;;;;;17.96;38.24;98738.90;1750844;81;21565;-42
2021/05/13 09:12:37;;;;;;;1.80;1.50;;;;;;;17.94;39.14;98735.80;1769498;81;21003;-41
2021/05/13 09:15:14;;;;;;;2.90;1.50;;;;;;;17.90;38.44;98735.87;1758486;81;21106;-42
2021/05/13 09:17:43;;;;;;;1.52;1.30;;;;;;;17.94;38.81;98734.42;1740721;81;21049;-42
2021/05/13 09:20:28;;;;;;;1.45;1.30;;;;;;;18.02;38.91;98737.18;1759776;81;21059;-42
2021/05/13 09:23:23;;;;;;;4.00;1.50;;;;;;;18.12;39.50;98727.36;1753257;81;21213;-41
2021/05/13 09:26:13;;;;;;;2.58;1.30;;;;;;;18.23;38.23;98739.48;1758775;81;21123;-42
2021/05/13 09:28:41;;;;;;;2.20;1.82;;;;;;;18.19;38.16;98731.33;1762381;81;21065;-42
2021/05/13 09:31:08;;;;;;;1.50;1.22;;;;;;;18.20;38.39;98727.99;1765552;81;21035;-42
2021/05/13 09:33:41;;;;;;;2.47;1.30;;;;;;;18.23;37.96;98732.62;1726060;81;21023;-42
2021/05/13 09:36:21;;;;;;;3.65;1.37;;;;;;;18.23;37.66;98717.53;1722304;82;21170;-42
2021/05/13 09:38:47;;;;;;;2.33;1.42;;;;;;;18.29;37.71;98715.83;1761317;81;20971;-42
2021/05/13 09:41:32;;;;;;;3.65;1.50;;;;;;;18.44;37.54;98723.92;1747243;81;21082;-42
2021/05/13 09:43:59;;;;;;;2.80;1.40;;;;;;;18.58;36.40;98713.23;1756383;81;20948;-42
2021/05/13 09:46:35;;;;;;;4.30;1.55;;;;;;;18.71;36.94;98713.30;1756173;81;21718;-42
2021/05/13 09:49:03;;;;;;;3.25;1.70;;;;;;;18.89;37.22;98716.38;1742568;81;21099;-42
2021/05/13 09:51:37;;;;;;;4.40;1.87;;;;;;;19.11;37.34;98714.66;1748517;81;21525;-42
2021/05/13 09:54:10;;;;;;;3.08;1.90;;;;;;;19.35;37.46;98720.09;1761844;81;21079;-42
2021/05/13 09:56:42;;;;;;;3.05;1.80;;;;;;;19.61;36.14;98698.20;1760323;81;21137;-42
2021/05/13 09:59:29;;;;;;;4.03;1.70;;;;;;;19.74;36.04;98716.91;1752663;81;21509;-42
2021/05/13 10:02:04;;;;;;;1.87;1.50;;;;;;;19.71;35.67;98721.88;1733943;82;21051;-42
2021/05/13 10:04:31;;;;;;;2.58;1.60;;;;;;;19.49;34.95;98718.37;1714194;82;21063;-42
2021/05/13 10:06:58;;;;;;;4.83;1.42;;;;;;;19.41;35.44;98706.60;1752753;81;21237;-42
2021/05/13 10:09:27;;;;;;;2.42;1.70;;;;;;;19.50;35.81;98710.89;1764484;81;20951;-42
2021/05/13 10:11:59;;;;;;;3.12;1.90;;;;;;;19.66;35.35;98705.92;1763753;81;20959;-42
2021/05/13 10:14:27;;;;;;;1.40;1.30;;;;;;;19.74;34.96;98703.16;1749920;80;21032;-42
2021/05/13 10:17:03;;;;;;;2.25;1.40;;;;;;;19.69;34.76;98689.94;1746592;81;21061;-42
2021/05/13 10:19:42;;;;;;;1.60;1.50;;;;;;;19.57;35.13;98686.53;1738954;81;21577;-42
2021/05/13 10:22:13;;;;;;;2.15;1.60;;;;;;;19.49;35.47;98699.72;1749846;81;21137;-42
2021/05/13 10:24:41;;;;;;;2.55;1.50;;;;;;;19.61;35.36;98694.85;1756434;79;20983;-42
2021/05/13 10:27:21;;;;;;;2.25;1.52;;;;;;;19.72;35.15;98688.45;1740796;81;21055;-42
2021/05/13 10:29:59;;;;;;;2.47;1.60;;;;;;;19.73;34.46;98694.12;1762994;81;21064;-42
2021/05/13 10:32:35;;;;;;;3.25;1.90;;;;;;;19.63;34.82;98688.92;1759127;81;21668;-42
2021/05/13 10:35:09;;;;;;;2.47;1.67;;;;;;;19.52;34.71;98684.50;1760110;81;21687;-42
2021/05/13 10:37:39;;;;;;;1.40;1.30;;;;;;;19.43;34.36;98680.81;1755516;81;20991;-41
2021/05/13 10:43:05;;;;;;;1.92;1.70;;;;;;;19.21;35.48;98676.52;1700701;83;21544;-41
2021/05/13 10:45:44;;;;;;;2.60;1.60;;;;;;;19.16;35.51;98679.78;1700267;83;21058;-40
2021/05/13 10:48:27;;;;;;;2.65;1.40;;;;;;;19.14;36.08;98668.44;1729262;82;21621;-40
2021/05/13 10:51:06;;;;;;;2.10;1.90;;;;;;;19.14;36.05;98667.67;1720724;83;21600;-40
2021/05/13 10:56:29;;;;;;;3.60;1.50;;;;;;;19.12;35.96;98680.48;1714877;83;21096;-40
2021/05/13 10:59:14;;;;;;;2.27;1.70;;;;;;;19.05;36.17;98686.16;1696873;83;21848;-41
2021/05/13 11:01:56;;;;;;;3.47;1.85;;;;;;;18.90;35.85;98683.59;1714221;83;21110;-41
2021/05/13 11:04:29;;;;;;;2.77;1.90;;;;;;;18.76;36.29;98677.09;1710685;83;21078;-41
2021/05/13 11:07:05;;;;;;;1.95;1.80;;;;;;;18.61;36.33;98682.94;1701066;83;21043;-40
2021/05/13 11:09:50;;;;;;;5.22;1.80;;;;;;;18.49;36.52;98683.58;1711826;83;21011;-41
2021/05/13 11:12:41;;;;;;;1.98;1.80;;;;;;;18.40;35.85;98675.17;1707652;83;21137;-41
2021/05/13 11:15:17;;;;;;;2.75;1.45;;;;;;;18.35;36.84;98670.20;1692206;83;21654;-40
2021/05/13 11:18:07;;;;;;;2.75;1.72;;;;;;;18.25;37.27;98663.75;1719395;82;21075;-40
2021/05/13 11:20:29;;;;;;;4.87;1.72;;;;;;;18.21;37.92;98682.87;1711189;83;21158;-40
2021/05/13 11:23:15;;;;;;;3.45;1.67;;;;;;;18.19;37.71;98689.41;1718530;83;21129;-40
2021/05/13 11:25:53;;;;;;;2.40;1.42;;;;;;;18.01;37.61;98649.27;1693586;83;21657;-40
2021/05/13 11:28:27;;;;;;;1.80;1.57;;;;;;;18.28;37.74;98709.39;1705028;83;21094;-41
2021/05/13 11:30:58;;;;;;;3.35;1.60;;;;;;;18.26;37.35;98675.51;1705134;83;20994;-41
2021/05/13 11:33:25;;;;;;;3.20;1.65;;;;;;;18.24;37.34;98668.31;1710477;83;21722;-41
2021/05/13 11:36:02;;;;;;;3.37;1.92;;;;;;;18.29;37.86;98680.75;1706209;83;21042;-41
2021/05/13 11:38:30;;;;;;;3.42;1.60;;;;;;;18.35;38.01;98694.89;1706136;83;21158;-41
2021/05/13 11:40:57;;;;;;;3.17;1.87;;;;;;;18.31;37.59;98696.95;1700572;83;20989;-40
2021/05/13 11:43:39;;;;;;;4.80;1.90;;;;;;;18.19;37.67;98687.44;1694746;83;21506;-41
2021/05/13 11:46:08;;;;;;;7.62;1.98;;;;;;;18.09;38.27;98688.45;1754421;81;21629;-41
2021/05/13 11:48:40;;;;;;;4.60;2.20;;;;;;;17.97;38.22;98697.91;1749379;81;21067;-41
2021/05/13 11:51:11;;;;;;;3.72;2.15;;;;;;;17.81;38.18;98706.26;1752818;81;21119;-40
2021/05/13 11:53:41;;;;;;;3.40;2.00;;;;;;;17.64;38.89;98703.30;1757462;81;20984;-41